sensor_id;sensor_type;location;lat;lon;timestamp;P1;durP1;ratioP1;P2;durP2;ratioP2
80175;SDS011;69501;42.124;24.722;2023-07-08T00:00:39;14.43;;;12.25;;
80175;SDS011;69501;42.124;24.722;2023-07-08T00:03:05;14.18;;;11.05;;
80175;SDS011;69501;42.124;24.722;2023-07-08T00:05:30;13.75;;;11.20;;
80175;SDS011;69501;42.124;24.722;2023-07-08T00:07:57;16.77;;;12.13;;
80175;SDS011;69501;42.124;24.722;2023-07-08T00:10:23;16.00;;;12.20;;
80175;SDS011;69501;42.124;24.722;2023-07-08T00:12:51;13.32;;;11.68;;
80175;SDS011;69501;42.124;24.722;2023-07-08T00:15:18;14.52;;;11.75;;
80175;SDS011;69501;42.124;24.722;2023-07-08T00:17:47;14.57;;;11.70;;
80175;SDS011;69501;42.124;24.722;2023-07-08T00:22:44;13.93;;;11.77;;
80175;SDS011;69501;42.124;24.722;2023-07-08T00:25:12;15.68;;;11.90;;
80175;SDS011;69501;42.124;24.722;2023-07-08T00:27:40;14.35;;;12.43;;
80175;SDS011;69501;42.124;24.722;2023-07-08T00:30:11;12.40;;;11.15;;
80175;SDS011;69501;42.124;24.722;2023-07-08T00:32:45;14.18;;;11.25;;
80175;SDS011;69501;42.124;24.722;2023-07-08T00:35:11;16.85;;;11.52;;
80175;SDS011;69501;42.124;24.722;2023-07-08T00:37:36;14.98;;;11.63;;
80175;SDS011;69501;42.124;24.722;2023-07-08T00:40:11;15.57;;;11.57;;
80175;SDS011;69501;42.124;24.722;2023-07-08T00:42:43;14.43;;;11.90;;
80175;SDS011;69501;42.124;24.722;2023-07-08T00:45:15;14.70;;;12.00;;
80175;SDS011;69501;42.124;24.722;2023-07-08T00:47:52;13.20;;;11.75;;
80175;SDS011;69501;42.124;24.722;2023-07-08T00:50:19;13.75;;;11.52;;
80175;SDS011;69501;42.124;24.722;2023-07-08T00:52:45;16.08;;;11.50;;
80175;SDS011;69501;42.124;24.722;2023-07-08T00:55:11;13.50;;;11.40;;
80175;SDS011;69501;42.124;24.722;2023-07-08T00:57:38;17.50;;;11.07;;
80175;SDS011;69501;42.124;24.722;2023-07-08T01:00:07;14.55;;;10.98;;
80175;SDS011;69501;42.124;24.722;2023-07-08T01:02:41;14.85;;;10.82;;
80175;SDS011;69501;42.124;24.722;2023-07-08T01:05:14;16.35;;;10.75;;
80175;SDS011;69501;42.124;24.722;2023-07-08T01:07:44;14.30;;;11.38;;
80175;SDS011;69501;42.124;24.722;2023-07-08T01:10:28;14.75;;;11.05;;
80175;SDS011;69501;42.124;24.722;2023-07-08T01:13:01;13.27;;;11.00;;
80175;SDS011;69501;42.124;24.722;2023-07-08T01:15:34;13.85;;;11.18;;
80175;SDS011;69501;42.124;24.722;2023-07-08T01:18:03;11.90;;;10.65;;
80175;SDS011;69501;42.124;24.722;2023-07-08T01:20:28;12.40;;;11.07;;
80175;SDS011;69501;42.124;24.722;2023-07-08T01:22:54;12.50;;;10.90;;
80175;SDS011;69501;42.124;24.722;2023-07-08T01:25:20;13.85;;;11.20;;
80175;SDS011;69501;42.124;24.722;2023-07-08T01:27:48;15.65;;;12.05;;
80175;SDS011;69501;42.124;24.722;2023-07-08T01:30:17;13.20;;;10.93;;
80175;SDS011;69501;42.124;24.722;2023-07-08T01:32:45;13.80;;;12.40;;
80175;SDS011;69501;42.124;24.722;2023-07-08T01:35:14;13.95;;;12.35;;
80175;SDS011;69501;42.124;24.722;2023-07-08T01:37:42;17.15;;;12.45;;
80175;SDS011;69501;42.124;24.722;2023-07-08T01:42:51;14.20;;;11.35;;
80175;SDS011;69501;42.124;24.722;2023-07-08T01:45:18;15.88;;;11.65;;
80175;SDS011;69501;42.124;24.722;2023-07-08T01:47:50;16.58;;;10.30;;
80175;SDS011;69501;42.124;24.722;2023-07-08T01:50:18;17.30;;;12.18;;
80175;SDS011;69501;42.124;24.722;2023-07-08T01:52:44;16.45;;;11.43;;
80175;SDS011;69501;42.124;24.722;2023-07-08T01:55:11;16.15;;;11.13;;
80175;SDS011;69501;42.124;24.722;2023-07-08T01:57:37;12.88;;;11.30;;
80175;SDS011;69501;42.124;24.722;2023-07-08T02:00:02;12.52;;;11.20;;
80175;SDS011;69501;42.124;24.722;2023-07-08T02:02:29;12.55;;;11.25;;
80175;SDS011;69501;42.124;24.722;2023-07-08T02:04:55;14.77;;;11.40;;
80175;SDS011;69501;42.124;24.722;2023-07-08T02:07:20;14.65;;;11.02;;
80175;SDS011;69501;42.124;24.722;2023-07-08T02:09:46;15.77;;;12.15;;
80175;SDS011;69501;42.124;24.722;2023-07-08T02:12:12;15.70;;;11.85;;
80175;SDS011;69501;42.124;24.722;2023-07-08T02:14:37;15.05;;;11.75;;
80175;SDS011;69501;42.124;24.722;2023-07-08T02:17:03;15.80;;;12.43;;
80175;SDS011;69501;42.124;24.722;2023-07-08T02:22:06;17.77;;;12.25;;
80175;SDS011;69501;42.124;24.722;2023-07-08T02:24:31;15.35;;;12.10;;
80175;SDS011;69501;42.124;24.722;2023-07-08T02:26:57;14.43;;;12.93;;
80175;SDS011;69501;42.124;24.722;2023-07-08T02:29:23;16.33;;;13.85;;
80175;SDS011;69501;42.124;24.722;2023-07-08T02:31:48;16.90;;;12.98;;
80175;SDS011;69501;42.124;24.722;2023-07-08T02:34:14;20.55;;;13.95;;
80175;SDS011;69501;42.124;24.722;2023-07-08T02:36:40;17.75;;;13.65;;
80175;SDS011;69501;42.124;24.722;2023-07-08T02:39:05;19.67;;;14.52;;
80175;SDS011;69501;42.124;24.722;2023-07-08T02:41:31;16.52;;;13.90;;
80175;SDS011;69501;42.124;24.722;2023-07-08T02:43:57;17.85;;;14.02;;
80175;SDS011;69501;42.124;24.722;2023-07-08T02:46:22;16.02;;;14.32;;
80175;SDS011;69501;42.124;24.722;2023-07-08T02:48:48;21.42;;;15.02;;
80175;SDS011;69501;42.124;24.722;2023-07-08T02:51:14;17.20;;;15.15;;
80175;SDS011;69501;42.124;24.722;2023-07-08T02:53:39;18.58;;;15.65;;
80175;SDS011;69501;42.124;24.722;2023-07-08T02:56:05;23.60;;;15.40;;
80175;SDS011;69501;42.124;24.722;2023-07-08T02:58:30;19.98;;;15.98;;
80175;SDS011;69501;42.124;24.722;2023-07-08T03:00:57;17.92;;;15.82;;
80175;SDS011;69501;42.124;24.722;2023-07-08T03:03:26;19.92;;;16.55;;
80175;SDS011;69501;42.124;24.722;2023-07-08T03:05:57;22.45;;;17.10;;
80175;SDS011;69501;42.124;24.722;2023-07-08T03:08:25;26.08;;;17.08;;
80175;SDS011;69501;42.124;24.722;2023-07-08T03:10:56;20.58;;;17.70;;
80175;SDS011;69501;42.124;24.722;2023-07-08T03:13:23;19.08;;;17.17;;
80175;SDS011;69501;42.124;24.722;2023-07-08T03:15:50;21.08;;;17.15;;
80175;SDS011;69501;42.124;24.722;2023-07-08T03:18:16;25.17;;;17.95;;
80175;SDS011;69501;42.124;24.722;2023-07-08T03:20:42;19.35;;;17.33;;
80175;SDS011;69501;42.124;24.722;2023-07-08T03:23:10;19.75;;;16.90;;
80175;SDS011;69501;42.124;24.722;2023-07-08T03:25:36;24.70;;;18.73;;
80175;SDS011;69501;42.124;24.722;2023-07-08T03:28:02;20.35;;;18.13;;
80175;SDS011;69501;42.124;24.722;2023-07-08T03:30:31;23.73;;;19.05;;
80175;SDS011;69501;42.124;24.722;2023-07-08T03:32:57;21.70;;;19.30;;
80175;SDS011;69501;42.124;24.722;2023-07-08T03:35:23;23.48;;;18.27;;
80175;SDS011;69501;42.124;24.722;2023-07-08T03:37:50;23.20;;;19.45;;
80175;SDS011;69501;42.124;24.722;2023-07-08T03:40:16;21.35;;;19.00;;
80175;SDS011;69501;42.124;24.722;2023-07-08T03:42:42;23.42;;;20.65;;
80175;SDS011;69501;42.124;24.722;2023-07-08T03:45:07;23.13;;;19.27;;
80175;SDS011;69501;42.124;24.722;2023-07-08T03:47:34;22.35;;;20.05;;
80175;SDS011;69501;42.124;24.722;2023-07-08T03:49:59;26.55;;;20.15;;
80175;SDS011;69501;42.124;24.722;2023-07-08T03:52:25;22.15;;;19.75;;
80175;SDS011;69501;42.124;24.722;2023-07-08T03:54:51;24.77;;;20.15;;
80175;SDS011;69501;42.124;24.722;2023-07-08T03:57:16;22.65;;;19.48;;
80175;SDS011;69501;42.124;24.722;2023-07-08T03:59:42;23.38;;;19.90;;
80175;SDS011;69501;42.124;24.722;2023-07-08T04:02:09;21.98;;;19.30;;
80175;SDS011;69501;42.124;24.722;2023-07-08T04:04:36;22.33;;;19.38;;
80175;SDS011;69501;42.124;24.722;2023-07-08T04:07:03;25.38;;;19.52;;
80175;SDS011;69501;42.124;24.722;2023-07-08T04:09:35;23.30;;;18.90;;
80175;SDS011;69501;42.124;24.722;2023-07-08T04:12:00;20.80;;;18.58;;
80175;SDS011;69501;42.124;24.722;2023-07-08T04:14:26;22.30;;;18.83;;
80175;SDS011;69501;42.124;24.722;2023-07-08T04:16:58;25.50;;;18.50;;
80175;SDS011;69501;42.124;24.722;2023-07-08T04:19:24;22.02;;;18.55;;
80175;SDS011;69501;42.124;24.722;2023-07-08T04:21:52;20.90;;;18.00;;
80175;SDS011;69501;42.124;24.722;2023-07-08T04:24:17;21.13;;;18.85;;
80175;SDS011;69501;42.124;24.722;2023-07-08T04:26:44;25.27;;;19.58;;
80175;SDS011;69501;42.124;24.722;2023-07-08T04:29:17;23.58;;;19.02;;
80175;SDS011;69501;42.124;24.722;2023-07-08T04:31:44;20.15;;;18.05;;
80175;SDS011;69501;42.124;24.722;2023-07-08T04:34:14;22.63;;;18.65;;
80175;SDS011;69501;42.124;24.722;2023-07-08T04:36:41;20.77;;;18.70;;
80175;SDS011;69501;42.124;24.722;2023-07-08T04:39:07;20.17;;;17.98;;
80175;SDS011;69501;42.124;24.722;2023-07-08T04:41:33;23.63;;;19.20;;
80175;SDS011;69501;42.124;24.722;2023-07-08T04:44:05;21.23;;;17.55;;
80175;SDS011;69501;42.124;24.722;2023-07-08T04:46:56;21.42;;;19.15;;
80175;SDS011;69501;42.124;24.722;2023-07-08T04:49:22;22.17;;;19.08;;
80175;SDS011;69501;42.124;24.722;2023-07-08T04:51:48;23.25;;;18.45;;
80175;SDS011;69501;42.124;24.722;2023-07-08T04:54:14;22.38;;;19.27;;
80175;SDS011;69501;42.124;24.722;2023-07-08T04:56:46;21.02;;;18.77;;
80175;SDS011;69501;42.124;24.722;2023-07-08T04:59:15;23.25;;;19.58;;
80175;SDS011;69501;42.124;24.722;2023-07-08T05:01:46;23.25;;;19.15;;
80175;SDS011;69501;42.124;24.722;2023-07-08T05:04:15;20.88;;;18.75;;
80175;SDS011;69501;42.124;24.722;2023-07-08T05:06:42;20.73;;;18.30;;
80175;SDS011;69501;42.124;24.722;2023-07-08T05:09:08;21.75;;;18.30;;
80175;SDS011;69501;42.124;24.722;2023-07-08T05:11:35;21.70;;;17.67;;
80175;SDS011;69501;42.124;24.722;2023-07-08T05:14:01;20.48;;;18.48;;
80175;SDS011;69501;42.124;24.722;2023-07-08T05:16:27;25.27;;;18.73;;
80175;SDS011;69501;42.124;24.722;2023-07-08T05:18:53;20.73;;;18.52;;
80175;SDS011;69501;42.124;24.722;2023-07-08T05:21:19;19.55;;;17.35;;
80175;SDS011;69501;42.124;24.722;2023-07-08T05:23:46;19.65;;;17.52;;
80175;SDS011;69501;42.124;24.722;2023-07-08T05:26:14;23.13;;;18.63;;
80175;SDS011;69501;42.124;24.722;2023-07-08T05:28:41;23.10;;;16.83;;
80175;SDS011;69501;42.124;24.722;2023-07-08T05:31:06;18.90;;;16.98;;
80175;SDS011;69501;42.124;24.722;2023-07-08T05:33:36;19.10;;;17.10;;
80175;SDS011;69501;42.124;24.722;2023-07-08T05:36:04;22.15;;;17.10;;
80175;SDS011;69501;42.124;24.722;2023-07-08T05:38:30;18.45;;;16.25;;
80175;SDS011;69501;42.124;24.722;2023-07-08T05:40:57;18.52;;;16.52;;
80175;SDS011;69501;42.124;24.722;2023-07-08T05:43:23;19.10;;;17.15;;
80175;SDS011;69501;42.124;24.722;2023-07-08T05:45:49;24.92;;;17.85;;
80175;SDS011;69501;42.124;24.722;2023-07-08T05:48:15;20.33;;;17.08;;
80175;SDS011;69501;42.124;24.722;2023-07-08T05:50:41;18.05;;;16.30;;
80175;SDS011;69501;42.124;24.722;2023-07-08T05:53:10;18.88;;;16.98;;
80175;SDS011;69501;42.124;24.722;2023-07-08T05:55:36;19.25;;;16.08;;
80175;SDS011;69501;42.124;24.722;2023-07-08T05:58:02;16.55;;;14.80;;
80175;SDS011;69501;42.124;24.722;2023-07-08T06:00:27;16.65;;;15.02;;
80175;SDS011;69501;42.124;24.722;2023-07-08T06:02:53;20.10;;;15.85;;
80175;SDS011;69501;42.124;24.722;2023-07-08T06:05:19;19.48;;;15.55;;
80175;SDS011;69501;42.124;24.722;2023-07-08T06:07:44;19.73;;;15.20;;
80175;SDS011;69501;42.124;24.722;2023-07-08T06:10:10;15.55;;;13.80;;
80175;SDS011;69501;42.124;24.722;2023-07-08T06:12:36;22.15;;;15.13;;
80175;SDS011;69501;42.124;24.722;2023-07-08T06:15:01;16.33;;;14.05;;
80175;SDS011;69501;42.124;24.722;2023-07-08T06:17:27;15.40;;;13.90;;
80175;SDS011;69501;42.124;24.722;2023-07-08T06:19:53;16.55;;;13.90;;
80175;SDS011;69501;42.124;24.722;2023-07-08T06:22:19;15.75;;;13.38;;
80175;SDS011;69501;42.124;24.722;2023-07-08T06:24:47;14.57;;;12.60;;
80175;SDS011;69501;42.124;24.722;2023-07-08T06:27:13;14.27;;;12.88;;
80175;SDS011;69501;42.124;24.722;2023-07-08T06:29:39;17.25;;;13.48;;
80175;SDS011;69501;42.124;24.722;2023-07-08T06:32:05;15.27;;;13.73;;
80175;SDS011;69501;42.124;24.722;2023-07-08T06:34:31;16.17;;;13.88;;
80175;SDS011;69501;42.124;24.722;2023-07-08T06:36:57;14.45;;;12.98;;
80175;SDS011;69501;42.124;24.722;2023-07-08T06:39:23;17.75;;;12.55;;
80175;SDS011;69501;42.124;24.722;2023-07-08T06:41:48;15.07;;;12.18;;
80175;SDS011;69501;42.124;24.722;2023-07-08T06:44:14;22.35;;;12.05;;
80175;SDS011;69501;42.124;24.722;2023-07-08T06:46:40;14.75;;;11.73;;
80175;SDS011;69501;42.124;24.722;2023-07-08T06:49:06;14.30;;;11.38;;
80175;SDS011;69501;42.124;24.722;2023-07-08T06:51:35;11.88;;;9.77;;
80175;SDS011;69501;42.124;24.722;2023-07-08T06:54:01;10.15;;;9.15;;
80175;SDS011;69501;42.124;24.722;2023-07-08T06:56:43;11.00;;;9.75;;
80175;SDS011;69501;42.124;24.722;2023-07-08T06:59:21;12.63;;;9.55;;
80175;SDS011;69501;42.124;24.722;2023-07-08T07:01:51;9.40;;;8.43;;
80175;SDS011;69501;42.124;24.722;2023-07-08T07:04:16;14.23;;;8.38;;
80175;SDS011;69501;42.124;24.722;2023-07-08T07:06:42;10.20;;;9.18;;
80175;SDS011;69501;42.124;24.722;2023-07-08T07:09:08;13.27;;;9.00;;
80175;SDS011;69501;42.124;24.722;2023-07-08T07:11:33;11.55;;;8.18;;
80175;SDS011;69501;42.124;24.722;2023-07-08T07:13:59;12.30;;;8.63;;
80175;SDS011;69501;42.124;24.722;2023-07-08T07:16:24;12.23;;;8.80;;
80175;SDS011;69501;42.124;24.722;2023-07-08T07:18:50;12.70;;;9.27;;
80175;SDS011;69501;42.124;24.722;2023-07-08T07:21:17;9.63;;;7.72;;
80175;SDS011;69501;42.124;24.722;2023-07-08T07:23:42;12.63;;;8.45;;
80175;SDS011;69501;42.124;24.722;2023-07-08T07:26:08;9.88;;;7.05;;
80175;SDS011;69501;42.124;24.722;2023-07-08T07:28:34;16.27;;;7.57;;
80175;SDS011;69501;42.124;24.722;2023-07-08T07:31:00;12.70;;;8.20;;
80175;SDS011;69501;42.124;24.722;2023-07-08T07:33:26;15.77;;;8.02;;
80175;SDS011;69501;42.124;24.722;2023-07-08T07:35:52;12.05;;;8.02;;
80175;SDS011;69501;42.124;24.722;2023-07-08T07:38:25;12.15;;;8.00;;
80175;SDS011;69501;42.124;24.722;2023-07-08T07:40:54;9.18;;;7.88;;
80175;SDS011;69501;42.124;24.722;2023-07-08T07:43:20;15.35;;;8.95;;
80175;SDS011;69501;42.124;24.722;2023-07-08T07:45:50;12.35;;;7.70;;
80175;SDS011;69501;42.124;24.722;2023-07-08T07:48:17;11.38;;;7.55;;
80175;SDS011;69501;42.124;24.722;2023-07-08T07:50:46;13.65;;;7.50;;
80175;SDS011;69501;42.124;24.722;2023-07-08T07:53:13;10.50;;;7.97;;
80175;SDS011;69501;42.124;24.722;2023-07-08T07:55:38;11.82;;;7.60;;
80175;SDS011;69501;42.124;24.722;2023-07-08T07:58:04;10.20;;;7.35;;
80175;SDS011;69501;42.124;24.722;2023-07-08T08:00:33;10.52;;;7.57;;
80175;SDS011;69501;42.124;24.722;2023-07-08T08:02:59;13.98;;;7.60;;
80175;SDS011;69501;42.124;24.722;2023-07-08T08:05:24;7.35;;;6.35;;
80175;SDS011;69501;42.124;24.722;2023-07-08T08:07:50;18.15;;;7.55;;
80175;SDS011;69501;42.124;24.722;2023-07-08T08:10:16;8.93;;;7.22;;
80175;SDS011;69501;42.124;24.722;2023-07-08T08:12:41;11.38;;;6.75;;
80175;SDS011;69501;42.124;24.722;2023-07-08T08:15:07;13.45;;;6.72;;
80175;SDS011;69501;42.124;24.722;2023-07-08T08:17:33;11.40;;;7.03;;
80175;SDS011;69501;42.124;24.722;2023-07-08T08:19:59;9.68;;;6.97;;
80175;SDS011;69501;42.124;24.722;2023-07-08T08:22:25;9.07;;;6.63;;
80175;SDS011;69501;42.124;24.722;2023-07-08T08:24:50;9.63;;;7.07;;
80175;SDS011;69501;42.124;24.722;2023-07-08T08:27:16;8.60;;;6.13;;
80175;SDS011;69501;42.124;24.722;2023-07-08T08:29:41;7.60;;;6.57;;
80175;SDS011;69501;42.124;24.722;2023-07-08T08:32:07;16.38;;;7.03;;
80175;SDS011;69501;42.124;24.722;2023-07-08T08:34:33;10.45;;;6.68;;
80175;SDS011;69501;42.124;24.722;2023-07-08T08:36:59;8.55;;;6.70;;
80175;SDS011;69501;42.124;24.722;2023-07-08T08:39:24;8.18;;;6.50;;
80175;SDS011;69501;42.124;24.722;2023-07-08T08:41:54;10.55;;;6.38;;
80175;SDS011;69501;42.124;24.722;2023-07-08T08:44:24;10.02;;;6.40;;
80175;SDS011;69501;42.124;24.722;2023-07-08T08:47:01;8.82;;;6.32;;
80175;SDS011;69501;42.124;24.722;2023-07-08T08:49:48;10.40;;;6.90;;
80175;SDS011;69501;42.124;24.722;2023-07-08T08:52:35;13.18;;;7.00;;
80175;SDS011;69501;42.124;24.722;2023-07-08T08:55:07;10.18;;;6.50;;
80175;SDS011;69501;42.124;24.722;2023-07-08T08:57:57;14.52;;;6.43;;
80175;SDS011;69501;42.124;24.722;2023-07-08T09:00:54;10.40;;;5.75;;
80175;SDS011;69501;42.124;24.722;2023-07-08T09:03:29;7.53;;;5.32;;
80175;SDS011;69501;42.124;24.722;2023-07-08T09:06:00;16.33;;;6.22;;
80175;SDS011;69501;42.124;24.722;2023-07-08T09:08:34;6.95;;;6.25;;
80175;SDS011;69501;42.124;24.722;2023-07-08T09:11:04;11.65;;;6.32;;
80175;SDS011;69501;42.124;24.722;2023-07-08T09:13:52;9.23;;;5.88;;
80175;SDS011;69501;42.124;24.722;2023-07-08T09:19:09;8.77;;;5.10;;
80175;SDS011;69501;42.124;24.722;2023-07-08T09:21:53;11.27;;;6.35;;
80175;SDS011;69501;42.124;24.722;2023-07-08T09:27:15;7.65;;;5.50;;
80175;SDS011;69501;42.124;24.722;2023-07-08T09:29:41;7.88;;;5.95;;
80175;SDS011;69501;42.124;24.722;2023-07-08T09:32:20;7.90;;;5.10;;
80175;SDS011;69501;42.124;24.722;2023-07-08T09:35:02;9.38;;;5.93;;
80175;SDS011;69501;42.124;24.722;2023-07-08T09:37:34;10.77;;;5.50;;
80175;SDS011;69501;42.124;24.722;2023-07-08T09:40:14;10.02;;;6.45;;
80175;SDS011;69501;42.124;24.722;2023-07-08T09:42:42;10.90;;;7.07;;
80175;SDS011;69501;42.124;24.722;2023-07-08T09:45:13;10.52;;;7.07;;
80175;SDS011;69501;42.124;24.722;2023-07-08T09:47:40;8.80;;;6.75;;
80175;SDS011;69501;42.124;24.722;2023-07-08T09:52:47;12.00;;;6.07;;
80175;SDS011;69501;42.124;24.722;2023-07-08T09:55:14;8.18;;;5.43;;
80175;SDS011;69501;42.124;24.722;2023-07-08T09:57:39;6.72;;;6.03;;
80175;SDS011;69501;42.124;24.722;2023-07-08T10:00:09;13.35;;;6.63;;
80175;SDS011;69501;42.124;24.722;2023-07-08T10:02:43;7.63;;;6.75;;
80175;SDS011;69501;42.124;24.722;2023-07-08T10:05:35;11.90;;;6.60;;
80175;SDS011;69501;42.124;24.722;2023-07-08T10:08:12;8.00;;;6.57;;
80175;SDS011;69501;42.124;24.722;2023-07-08T10:10:58;8.25;;;6.38;;
80175;SDS011;69501;42.124;24.722;2023-07-08T10:13:33;7.80;;;5.70;;
80175;SDS011;69501;42.124;24.722;2023-07-08T10:18:38;10.35;;;6.40;;
80175;SDS011;69501;42.124;24.722;2023-07-08T10:24:02;6.07;;;4.93;;
80175;SDS011;69501;42.124;24.722;2023-07-08T10:27:05;7.53;;;6.15;;
80175;SDS011;69501;42.124;24.722;2023-07-08T10:29:33;16.38;;;6.95;;
80175;SDS011;69501;42.124;24.722;2023-07-08T10:34:42;7.00;;;6.40;;
80175;SDS011;69501;42.124;24.722;2023-07-08T10:40:01;6.60;;;5.80;;
80175;SDS011;69501;42.124;24.722;2023-07-08T10:43:00;10.90;;;6.75;;
80175;SDS011;69501;42.124;24.722;2023-07-08T10:56:51;5.63;;;5.13;;
80175;SDS011;69501;42.124;24.722;2023-07-08T11:07:50;7.97;;;5.22;;
80175;SDS011;69501;42.124;24.722;2023-07-08T11:10:40;6.25;;;5.32;;
80175;SDS011;69501;42.124;24.722;2023-07-08T11:13:19;11.73;;;6.75;;
80175;SDS011;69501;42.124;24.722;2023-07-08T11:15:54;8.07;;;5.72;;
80175;SDS011;69501;42.124;24.722;2023-07-08T11:23:52;5.95;;;5.18;;
80175;SDS011;69501;42.124;24.722;2023-07-08T11:29:19;11.45;;;5.03;;
80175;SDS011;69501;42.124;24.722;2023-07-08T11:31:51;8.63;;;5.20;;
80175;SDS011;69501;42.124;24.722;2023-07-08T11:34:19;10.25;;;6.03;;
80175;SDS011;69501;42.124;24.722;2023-07-08T11:36:46;6.70;;;5.10;;
80175;SDS011;69501;42.124;24.722;2023-07-08T11:47:46;6.50;;;5.35;;
80175;SDS011;69501;42.124;24.722;2023-07-08T11:53:30;8.77;;;6.03;;
80175;SDS011;69501;42.124;24.722;2023-07-08T11:55:58;6.43;;;5.30;;
80175;SDS011;69501;42.124;24.722;2023-07-08T11:58:26;6.43;;;5.38;;
80175;SDS011;69501;42.124;24.722;2023-07-08T12:00:58;5.68;;;4.85;;
80175;SDS011;69501;42.124;24.722;2023-07-08T12:03:49;5.38;;;4.88;;
80175;SDS011;69501;42.124;24.722;2023-07-08T12:08:59;6.63;;;4.97;;
80175;SDS011;69501;42.124;24.722;2023-07-08T12:11:39;6.30;;;5.40;;
80175;SDS011;69501;42.124;24.722;2023-07-08T12:14:05;8.40;;;4.63;;
80175;SDS011;69501;42.124;24.722;2023-07-08T12:16:33;8.50;;;4.93;;
80175;SDS011;69501;42.124;24.722;2023-07-08T12:18:59;7.47;;;5.63;;
80175;SDS011;69501;42.124;24.722;2023-07-08T12:21:29;6.13;;;5.00;;
80175;SDS011;69501;42.124;24.722;2023-07-08T12:24:02;7.78;;;5.47;;
80175;SDS011;69501;42.124;24.722;2023-07-08T12:26:33;9.18;;;5.88;;
80175;SDS011;69501;42.124;24.722;2023-07-08T12:28:59;11.45;;;5.90;;
80175;SDS011;69501;42.124;24.722;2023-07-08T12:31:24;5.53;;;5.00;;
80175;SDS011;69501;42.124;24.722;2023-07-08T12:33:51;6.93;;;5.50;;
80175;SDS011;69501;42.124;24.722;2023-07-08T12:36:18;5.70;;;5.18;;
80175;SDS011;69501;42.124;24.722;2023-07-08T12:38:50;5.53;;;4.90;;
80175;SDS011;69501;42.124;24.722;2023-07-08T12:41:19;8.48;;;4.90;;
80175;SDS011;69501;42.124;24.722;2023-07-08T12:43:50;9.55;;;4.63;;
80175;SDS011;69501;42.124;24.722;2023-07-08T12:46:17;6.07;;;5.45;;
80175;SDS011;69501;42.124;24.722;2023-07-08T12:48:45;6.72;;;5.47;;
80175;SDS011;69501;42.124;24.722;2023-07-08T12:51:11;8.27;;;5.40;;
80175;SDS011;69501;42.124;24.722;2023-07-08T12:53:43;6.93;;;5.30;;
80175;SDS011;69501;42.124;24.722;2023-07-08T12:56:09;6.75;;;5.45;;
80175;SDS011;69501;42.124;24.722;2023-07-08T12:58:45;7.60;;;6.00;;
80175;SDS011;69501;42.124;24.722;2023-07-08T13:01:15;6.30;;;5.70;;
80175;SDS011;69501;42.124;24.722;2023-07-08T13:03:45;7.72;;;5.63;;
80175;SDS011;69501;42.124;24.722;2023-07-08T13:06:14;6.78;;;6.13;;
80175;SDS011;69501;42.124;24.722;2023-07-08T13:08:45;7.22;;;6.53;;
80175;SDS011;69501;42.124;24.722;2023-07-08T13:11:12;6.10;;;5.60;;
80175;SDS011;69501;42.124;24.722;2023-07-08T13:13:44;5.95;;;5.45;;
80175;SDS011;69501;42.124;24.722;2023-07-08T13:16:15;6.97;;;4.90;;
80175;SDS011;69501;42.124;24.722;2023-07-08T13:18:42;5.32;;;3.83;;
80175;SDS011;69501;42.124;24.722;2023-07-08T13:21:14;4.43;;;4.03;;
80175;SDS011;69501;42.124;24.722;2023-07-08T13:23:41;8.55;;;3.72;;
80175;SDS011;69501;42.124;24.722;2023-07-08T13:26:14;11.93;;;3.95;;
80175;SDS011;69501;42.124;24.722;2023-07-08T13:28:42;8.13;;;4.30;;
80175;SDS011;69501;42.124;24.722;2023-07-08T13:31:21;6.80;;;4.07;;
80175;SDS011;69501;42.124;24.722;2023-07-08T13:33:49;6.70;;;3.67;;
80175;SDS011;69501;42.124;24.722;2023-07-08T13:36:18;11.32;;;3.63;;
80175;SDS011;69501;42.124;24.722;2023-07-08T13:38:45;7.55;;;3.13;;
80175;SDS011;69501;42.124;24.722;2023-07-08T13:41:15;7.88;;;3.30;;
80175;SDS011;69501;42.124;24.722;2023-07-08T13:43:45;5.65;;;3.08;;
80175;SDS011;69501;42.124;24.722;2023-07-08T13:49:00;5.53;;;2.80;;
80175;SDS011;69501;42.124;24.722;2023-07-08T13:51:45;4.03;;;3.20;;
80175;SDS011;69501;42.124;24.722;2023-07-08T13:54:16;3.63;;;2.63;;
80175;SDS011;69501;42.124;24.722;2023-07-08T13:56:44;6.32;;;3.03;;
80175;SDS011;69501;42.124;24.722;2023-07-08T13:59:11;6.13;;;2.60;;
80175;SDS011;69501;42.124;24.722;2023-07-08T14:01:42;2.92;;;2.20;;
80175;SDS011;69501;42.124;24.722;2023-07-08T14:04:16;2.17;;;1.85;;
80175;SDS011;69501;42.124;24.722;2023-07-08T14:06:44;5.18;;;3.47;;
80175;SDS011;69501;42.124;24.722;2023-07-08T14:11:46;6.43;;;4.32;;
80175;SDS011;69501;42.124;24.722;2023-07-08T14:14:13;5.85;;;3.92;;
80175;SDS011;69501;42.124;24.722;2023-07-08T14:16:45;4.13;;;3.67;;
80175;SDS011;69501;42.124;24.722;2023-07-08T14:19:25;5.60;;;3.58;;
80175;SDS011;69501;42.124;24.722;2023-07-08T14:21:57;8.85;;;3.78;;
80175;SDS011;69501;42.124;24.722;2023-07-08T14:24:25;7.55;;;3.33;;
80175;SDS011;69501;42.124;24.722;2023-07-08T14:26:51;4.80;;;3.20;;
80175;SDS011;69501;42.124;24.722;2023-07-08T14:29:18;4.18;;;3.30;;
80175;SDS011;69501;42.124;24.722;2023-07-08T14:31:44;5.57;;;3.55;;
80175;SDS011;69501;42.124;24.722;2023-07-08T14:34:16;8.20;;;4.13;;
80175;SDS011;69501;42.124;24.722;2023-07-08T14:36:49;5.05;;;3.65;;
80175;SDS011;69501;42.124;24.722;2023-07-08T14:39:16;6.68;;;4.07;;
80175;SDS011;69501;42.124;24.722;2023-07-08T14:41:42;7.32;;;3.60;;
80175;SDS011;69501;42.124;24.722;2023-07-08T14:44:23;11.23;;;3.33;;
80175;SDS011;69501;42.124;24.722;2023-07-08T14:46:58;5.93;;;3.42;;
80175;SDS011;69501;42.124;24.722;2023-07-08T14:49:24;5.10;;;3.72;;
80175;SDS011;69501;42.124;24.722;2023-07-08T14:51:50;5.15;;;3.70;;
80175;SDS011;69501;42.124;24.722;2023-07-08T14:54:20;4.05;;;3.03;;
80175;SDS011;69501;42.124;24.722;2023-07-08T14:56:46;4.28;;;2.80;;
80175;SDS011;69501;42.124;24.722;2023-07-08T14:59:14;6.70;;;3.13;;
80175;SDS011;69501;42.124;24.722;2023-07-08T15:01:43;5.63;;;2.92;;
80175;SDS011;69501;42.124;24.722;2023-07-08T15:04:11;2.83;;;2.63;;
80175;SDS011;69501;42.124;24.722;2023-07-08T15:06:37;2.70;;;2.50;;
80175;SDS011;69501;42.124;24.722;2023-07-08T15:09:03;5.80;;;3.10;;
80175;SDS011;69501;42.124;24.722;2023-07-08T15:11:30;5.32;;;3.13;;
80175;SDS011;69501;42.124;24.722;2023-07-08T15:13:57;7.50;;;3.65;;
80175;SDS011;69501;42.124;24.722;2023-07-08T15:16:23;9.43;;;3.47;;
80175;SDS011;69501;42.124;24.722;2023-07-08T15:18:49;5.47;;;2.78;;
80175;SDS011;69501;42.124;24.722;2023-07-08T15:21:15;5.82;;;3.08;;
80175;SDS011;69501;42.124;24.722;2023-07-08T15:23:41;3.60;;;2.95;;
80175;SDS011;69501;42.124;24.722;2023-07-08T15:26:10;5.07;;;3.13;;
80175;SDS011;69501;42.124;24.722;2023-07-08T15:28:45;8.15;;;2.97;;
80175;SDS011;69501;42.124;24.722;2023-07-08T15:31:23;4.50;;;3.38;;
80175;SDS011;69501;42.124;24.722;2023-07-08T15:33:52;7.10;;;3.35;;
80175;SDS011;69501;42.124;24.722;2023-07-08T15:36:18;2.60;;;2.40;;
80175;SDS011;69501;42.124;24.722;2023-07-08T15:38:44;3.00;;;2.70;;
80175;SDS011;69501;42.124;24.722;2023-07-08T15:43:46;3.45;;;2.65;;
80175;SDS011;69501;42.124;24.722;2023-07-08T15:46:13;4.22;;;2.92;;
80175;SDS011;69501;42.124;24.722;2023-07-08T15:48:39;2.90;;;2.70;;